sensor_id;sensor_type;location;lat;lon;timestamp;temperature;humidity
59847;DHT22;45728;48.788;2.302;2023-07-20T00:01:49;18.90;99.90
59847;DHT22;45728;48.788;2.302;2023-07-20T00:04:15;18.90;99.90
59847;DHT22;45728;48.788;2.302;2023-07-20T00:06:41;18.90;99.90
59847;DHT22;45728;48.788;2.302;2023-07-20T00:09:08;18.90;99.90
59847;DHT22;45728;48.788;2.302;2023-07-20T00:11:36;18.80;99.90
59847;DHT22;45728;48.788;2.302;2023-07-20T00:14:06;18.70;99.90
59847;DHT22;45728;48.788;2.302;2023-07-20T00:16:32;18.70;99.90
59847;DHT22;45728;48.788;2.302;2023-07-20T00:18:58;18.60;99.90
59847;DHT22;45728;48.788;2.302;2023-07-20T00:21:25;18.70;99.90
59847;DHT22;45728;48.788;2.302;2023-07-20T00:23:51;18.60;99.90
59847;DHT22;45728;48.788;2.302;2023-07-20T00:26:17;18.60;99.90
59847;DHT22;45728;48.788;2.302;2023-07-20T00:28:43;18.60;99.90
59847;DHT22;45728;48.788;2.302;2023-07-20T00:31:09;18.60;99.90
59847;DHT22;45728;48.788;2.302;2023-07-20T00:33:35;18.60;99.90
59847;DHT22;45728;48.788;2.302;2023-07-20T00:36:01;18.60;99.90
59847;DHT22;45728;48.788;2.302;2023-07-20T00:38:28;18.50;99.90
59847;DHT22;45728;48.788;2.302;2023-07-20T00:40:54;18.50;99.90
59847;DHT22;45728;48.788;2.302;2023-07-20T00:43:20;18.50;99.90
59847;DHT22;45728;48.788;2.302;2023-07-20T00:45:46;18.40;99.90
59847;DHT22;45728;48.788;2.302;2023-07-20T00:48:12;18.40;99.90
59847;DHT22;45728;48.788;2.302;2023-07-20T00:50:40;18.40;99.90
59847;DHT22;45728;48.788;2.302;2023-07-20T00:53:06;18.40;99.90
59847;DHT22;45728;48.788;2.302;2023-07-20T00:55:33;18.40;99.90
59847;DHT22;45728;48.788;2.302;2023-07-20T00:57:59;18.30;99.90
59847;DHT22;45728;48.788;2.302;2023-07-20T01:00:26;18.30;99.90
59847;DHT22;45728;48.788;2.302;2023-07-20T01:02:52;18.30;99.90
59847;DHT22;45728;48.788;2.302;2023-07-20T01:05:18;18.20;99.90
59847;DHT22;45728;48.788;2.302;2023-07-20T01:07:58;18.20;99.90
59847;DHT22;45728;48.788;2.302;2023-07-20T01:13:01;18.20;99.90
59847;DHT22;45728;48.788;2.302;2023-07-20T01:15:27;18.20;99.90
59847;DHT22;45728;48.788;2.302;2023-07-20T01:17:53;18.20;99.90
59847;DHT22;45728;48.788;2.302;2023-07-20T01:20:22;18.10;99.90
59847;DHT22;45728;48.788;2.302;2023-07-20T01:25:45;18.10;99.90
59847;DHT22;45728;48.788;2.302;2023-07-20T01:31:15;17.90;99.90
59847;DHT22;45728;48.788;2.302;2023-07-20T01:33:42;17.90;99.90
59847;DHT22;45728;48.788;2.302;2023-07-20T01:36:10;17.90;99.90
59847;DHT22;45728;48.788;2.302;2023-07-20T01:38:37;17.80;99.90
59847;DHT22;45728;48.788;2.302;2023-07-20T01:41:03;17.70;99.90
59847;DHT22;45728;48.788;2.302;2023-07-20T01:43:30;17.60;99.90
59847;DHT22;45728;48.788;2.302;2023-07-20T01:45:56;17.60;99.90
59847;DHT22;45728;48.788;2.302;2023-07-20T01:48:22;17.60;99.90
59847;DHT22;45728;48.788;2.302;2023-07-20T01:50:48;17.60;99.90
59847;DHT22;45728;48.788;2.302;2023-07-20T01:53:14;17.60;99.90
59847;DHT22;45728;48.788;2.302;2023-07-20T01:55:40;17.50;99.90
59847;DHT22;45728;48.788;2.302;2023-07-20T01:58:06;17.50;99.90
59847;DHT22;45728;48.788;2.302;2023-07-20T02:00:32;17.50;99.90
59847;DHT22;45728;48.788;2.302;2023-07-20T02:02:59;17.40;99.90
59847;DHT22;45728;48.788;2.302;2023-07-20T02:05:25;17.40;99.90
59847;DHT22;45728;48.788;2.302;2023-07-20T02:07:51;17.40;99.90
59847;DHT22;45728;48.788;2.302;2023-07-20T02:10:17;17.40;99.90
59847;DHT22;45728;48.788;2.302;2023-07-20T02:12:43;17.40;99.90
59847;DHT22;45728;48.788;2.302;2023-07-20T02:15:09;17.30;99.90
59847;DHT22;45728;48.788;2.302;2023-07-20T02:17:36;17.30;99.90
59847;DHT22;45728;48.788;2.302;2023-07-20T02:20:03;17.20;99.90
59847;DHT22;45728;48.788;2.302;2023-07-20T02:22:29;17.20;99.90
59847;DHT22;45728;48.788;2.302;2023-07-20T02:24:55;17.10;99.90
59847;DHT22;45728;48.788;2.302;2023-07-20T02:27:21;17.10;99.90
59847;DHT22;45728;48.788;2.302;2023-07-20T02:29:47;17.00;99.90
59847;DHT22;45728;48.788;2.302;2023-07-20T02:32:13;17.10;99.90
59847;DHT22;45728;48.788;2.302;2023-07-20T02:34:40;17.10;99.90
59847;DHT22;45728;48.788;2.302;2023-07-20T02:37:06;17.10;99.90
59847;DHT22;45728;48.788;2.302;2023-07-20T02:39:32;17.10;99.90
59847;DHT22;45728;48.788;2.302;2023-07-20T02:41:58;17.10;99.90
59847;DHT22;45728;48.788;2.302;2023-07-20T02:44:24;17.10;99.90
59847;DHT22;45728;48.788;2.302;2023-07-20T02:46:50;17.00;99.90
59847;DHT22;45728;48.788;2.302;2023-07-20T02:49:16;17.00;99.90
59847;DHT22;45728;48.788;2.302;2023-07-20T02:51:42;16.90;99.90
59847;DHT22;45728;48.788;2.302;2023-07-20T02:54:08;16.90;99.90
59847;DHT22;45728;48.788;2.302;2023-07-20T02:56:34;17.00;99.90
59847;DHT22;45728;48.788;2.302;2023-07-20T02:59:01;17.00;99.90
59847;DHT22;45728;48.788;2.302;2023-07-20T03:01:28;17.00;99.90
59847;DHT22;45728;48.788;2.302;2023-07-20T03:03:55;17.00;99.90
59847;DHT22;45728;48.788;2.302;2023-07-20T03:06:21;17.00;99.90
59847;DHT22;45728;48.788;2.302;2023-07-20T03:08:48;17.00;99.90
59847;DHT22;45728;48.788;2.302;2023-07-20T03:11:16;17.00;99.90
59847;DHT22;45728;48.788;2.302;2023-07-20T03:13:42;17.00;99.90
59847;DHT22;45728;48.788;2.302;2023-07-20T03:16:09;17.00;99.90
59847;DHT22;45728;48.788;2.302;2023-07-20T03:18:40;17.00;99.90
59847;DHT22;45728;48.788;2.302;2023-07-20T03:21:06;16.90;99.90
59847;DHT22;45728;48.788;2.302;2023-07-20T03:23:33;16.90;99.90
59847;DHT22;45728;48.788;2.302;2023-07-20T03:25:59;17.00;99.90
59847;DHT22;45728;48.788;2.302;2023-07-20T03:28:25;17.00;99.90
59847;DHT22;45728;48.788;2.302;2023-07-20T03:30:58;16.90;99.90
59847;DHT22;45728;48.788;2.302;2023-07-20T03:33:28;16.90;99.90
59847;DHT22;45728;48.788;2.302;2023-07-20T03:35:55;16.90;99.90
59847;DHT22;45728;48.788;2.302;2023-07-20T03:38:25;16.90;99.90
59847;DHT22;45728;48.788;2.302;2023-07-20T03:40:53;16.80;99.90
59847;DHT22;45728;48.788;2.302;2023-07-20T03:43:20;16.80;99.90
59847;DHT22;45728;48.788;2.302;2023-07-20T03:45:47;16.80;99.90
59847;DHT22;45728;48.788;2.302;2023-07-20T03:48:16;16.70;99.90
59847;DHT22;45728;48.788;2.302;2023-07-20T03:50:44;16.70;99.90
59847;DHT22;45728;48.788;2.302;2023-07-20T03:53:11;16.60;99.90
59847;DHT22;45728;48.788;2.302;2023-07-20T03:55:38;16.70;99.90
59847;DHT22;45728;48.788;2.302;2023-07-20T03:58:06;16.70;99.90
59847;DHT22;45728;48.788;2.302;2023-07-20T04:00:33;16.70;99.90
59847;DHT22;45728;48.788;2.302;2023-07-20T04:02:59;16.70;99.90
59847;DHT22;45728;48.788;2.302;2023-07-20T04:05:25;16.70;99.90
59847;DHT22;45728;48.788;2.302;2023-07-20T04:07:52;16.60;99.90
59847;DHT22;45728;48.788;2.302;2023-07-20T04:10:21;16.60;99.90
59847;DHT22;45728;48.788;2.302;2023-07-20T04:12:47;16.70;99.90
59847;DHT22;45728;48.788;2.302;2023-07-20T04:15:14;16.70;99.90
59847;DHT22;45728;48.788;2.302;2023-07-20T04:17:40;16.70;99.90
59847;DHT22;45728;48.788;2.302;2023-07-20T04:20:07;16.70;99.90
59847;DHT22;45728;48.788;2.302;2023-07-20T04:22:34;16.80;99.90
59847;DHT22;45728;48.788;2.302;2023-07-20T04:25:00;16.70;99.90
59847;DHT22;45728;48.788;2.302;2023-07-20T04:27:26;16.70;99.90
59847;DHT22;45728;48.788;2.302;2023-07-20T04:29:52;16.70;99.90
59847;DHT22;45728;48.788;2.302;2023-07-20T04:32:18;16.70;99.90
59847;DHT22;45728;48.788;2.302;2023-07-20T04:34:44;16.70;99.90
59847;DHT22;45728;48.788;2.302;2023-07-20T04:37:10;16.70;99.90
59847;DHT22;45728;48.788;2.302;2023-07-20T04:39:36;16.60;99.90
59847;DHT22;45728;48.788;2.302;2023-07-20T04:42:03;16.60;99.90
59847;DHT22;45728;48.788;2.302;2023-07-20T04:44:29;16.60;99.90
59847;DHT22;45728;48.788;2.302;2023-07-20T04:46:55;16.60;99.90
59847;DHT22;45728;48.788;2.302;2023-07-20T04:49:21;16.50;99.90
59847;DHT22;45728;48.788;2.302;2023-07-20T04:51:47;16.60;99.90
59847;DHT22;45728;48.788;2.302;2023-07-20T04:54:13;16.60;99.90
59847;DHT22;45728;48.788;2.302;2023-07-20T04:56:39;16.60;99.90
59847;DHT22;45728;48.788;2.302;2023-07-20T04:59:05;16.60;99.90
59847;DHT22;45728;48.788;2.302;2023-07-20T05:01:31;16.60;99.90
59847;DHT22;45728;48.788;2.302;2023-07-20T05:03:57;16.60;99.90
59847;DHT22;45728;48.788;2.302;2023-07-20T05:06:23;16.60;99.90
59847;DHT22;45728;48.788;2.302;2023-07-20T05:08:49;16.80;99.90
59847;DHT22;45728;48.788;2.302;2023-07-20T05:11:15;16.80;99.90
59847;DHT22;45728;48.788;2.302;2023-07-20T05:13:41;16.80;99.90
59847;DHT22;45728;48.788;2.302;2023-07-20T05:16:08;16.90;99.90
59847;DHT22;45728;48.788;2.302;2023-07-20T05:18:34;16.90;99.90
59847;DHT22;45728;48.788;2.302;2023-07-20T05:21:00;16.90;99.90
59847;DHT22;45728;48.788;2.302;2023-07-20T05:23:26;17.00;99.90
59847;DHT22;45728;48.788;2.302;2023-07-20T05:25:56;17.00;99.90
59847;DHT22;45728;48.788;2.302;2023-07-20T05:28:23;17.00;99.90
59847;DHT22;45728;48.788;2.302;2023-07-20T05:30:52;17.00;99.90
59847;DHT22;45728;48.788;2.302;2023-07-20T05:33:22;17.10;99.90
59847;DHT22;45728;48.788;2.302;2023-07-20T05:35:48;17.10;99.90
59847;DHT22;45728;48.788;2.302;2023-07-20T05:38:14;17.10;99.90
59847;DHT22;45728;48.788;2.302;2023-07-20T05:40:41;17.10;99.90
59847;DHT22;45728;48.788;2.302;2023-07-20T05:43:08;17.10;99.90
59847;DHT22;45728;48.788;2.302;2023-07-20T05:45:35;17.20;99.90
59847;DHT22;45728;48.788;2.302;2023-07-20T05:48:01;17.20;99.90
59847;DHT22;45728;48.788;2.302;2023-07-20T05:50:27;17.30;99.90
59847;DHT22;45728;48.788;2.302;2023-07-20T05:52:54;17.20;99.90
59847;DHT22;45728;48.788;2.302;2023-07-20T05:55:20;17.30;99.90
59847;DHT22;45728;48.788;2.302;2023-07-20T05:57:46;17.30;99.90
59847;DHT22;45728;48.788;2.302;2023-07-20T06:00:14;17.30;99.90
59847;DHT22;45728;48.788;2.302;2023-07-20T06:02:40;17.40;99.90
59847;DHT22;45728;48.788;2.302;2023-07-20T06:05:07;17.60;99.90
59847;DHT22;45728;48.788;2.302;2023-07-20T06:07:36;17.90;99.90
59847;DHT22;45728;48.788;2.302;2023-07-20T06:10:03;18.50;99.90
59847;DHT22;45728;48.788;2.302;2023-07-20T06:12:29;19.00;99.90
59847;DHT22;45728;48.788;2.302;2023-07-20T06:14:55;19.50;99.90
59847;DHT22;45728;48.788;2.302;2023-07-20T06:17:21;19.90;99.90
59847;DHT22;45728;48.788;2.302;2023-07-20T06:19:47;20.00;99.90
59847;DHT22;45728;48.788;2.302;2023-07-20T06:22:13;20.10;99.90
59847;DHT22;45728;48.788;2.302;2023-07-20T06:24:42;20.30;99.90
59847;DHT22;45728;48.788;2.302;2023-07-20T06:27:08;20.10;99.90
59847;DHT22;45728;48.788;2.302;2023-07-20T06:29:34;20.30;99.90
59847;DHT22;45728;48.788;2.302;2023-07-20T06:32:00;20.60;99.90
59847;DHT22;45728;48.788;2.302;2023-07-20T06:34:26;20.90;99.90
59847;DHT22;45728;48.788;2.302;2023-07-20T06:36:52;20.50;99.90
59847;DHT22;45728;48.788;2.302;2023-07-20T06:39:18;20.50;99.90
59847;DHT22;45728;48.788;2.302;2023-07-20T06:41:44;21.30;99.90
59847;DHT22;45728;48.788;2.302;2023-07-20T06:44:10;21.70;99.90
59847;DHT22;45728;48.788;2.302;2023-07-20T06:46:36;21.70;99.90
59847;DHT22;45728;48.788;2.302;2023-07-20T06:49:06;21.70;99.90
59847;DHT22;45728;48.788;2.302;2023-07-20T06:51:32;21.20;99.90
59847;DHT22;45728;48.788;2.302;2023-07-20T06:53:58;20.80;99.90
59847;DHT22;45728;48.788;2.302;2023-07-20T06:56:24;20.90;99.90
59847;DHT22;45728;48.788;2.302;2023-07-20T06:58:50;20.80;99.90
59847;DHT22;45728;48.788;2.302;2023-07-20T07:01:16;20.60;99.90
59847;DHT22;45728;48.788;2.302;2023-07-20T07:03:42;20.40;99.90
59847;DHT22;45728;48.788;2.302;2023-07-20T07:06:09;20.40;99.90
59847;DHT22;45728;48.788;2.302;2023-07-20T07:08:36;20.30;99.90
59847;DHT22;45728;48.788;2.302;2023-07-20T07:11:02;20.30;99.90
59847;DHT22;45728;48.788;2.302;2023-07-20T07:13:28;20.20;99.90
59847;DHT22;45728;48.788;2.302;2023-07-20T07:15:54;19.90;99.90
59847;DHT22;45728;48.788;2.302;2023-07-20T07:18:20;19.90;99.90
59847;DHT22;45728;48.788;2.302;2023-07-20T07:20:53;20.00;99.90
59847;DHT22;45728;48.788;2.302;2023-07-20T07:23:19;20.10;99.90
59847;DHT22;45728;48.788;2.302;2023-07-20T07:25:46;19.90;99.90
59847;DHT22;45728;48.788;2.302;2023-07-20T07:28:12;20.00;99.90
59847;DHT22;45728;48.788;2.302;2023-07-20T07:30:39;20.20;99.90
59847;DHT22;45728;48.788;2.302;2023-07-20T07:33:05;20.50;99.90
59847;DHT22;45728;48.788;2.302;2023-07-20T07:35:31;20.30;99.90
59847;DHT22;45728;48.788;2.302;2023-07-20T07:37:57;20.10;99.90
59847;DHT22;45728;48.788;2.302;2023-07-20T07:40:23;20.10;99.90
59847;DHT22;45728;48.788;2.302;2023-07-20T07:42:49;20.20;99.90
59847;DHT22;45728;48.788;2.302;2023-07-20T07:45:16;20.00;99.90
59847;DHT22;45728;48.788;2.302;2023-07-20T07:47:42;20.00;99.90
59847;DHT22;45728;48.788;2.302;2023-07-20T07:50:09;19.90;99.90
59847;DHT22;45728;48.788;2.302;2023-07-20T07:52:36;20.00;99.90
59847;DHT22;45728;48.788;2.302;2023-07-20T07:55:02;20.30;99.90
59847;DHT22;45728;48.788;2.302;2023-07-20T07:57:30;20.20;99.90
59847;DHT22;45728;48.788;2.302;2023-07-20T07:59:56;20.20;99.90
59847;DHT22;45728;48.788;2.302;2023-07-20T08:02:22;20.10;99.90
59847;DHT22;45728;48.788;2.302;2023-07-20T08:04:48;20.00;99.90
59847;DHT22;45728;48.788;2.302;2023-07-20T08:07:14;20.30;99.90
59847;DHT22;45728;48.788;2.302;2023-07-20T08:09:40;20.20;99.90
59847;DHT22;45728;48.788;2.302;2023-07-20T08:12:06;20.40;99.90
59847;DHT22;45728;48.788;2.302;2023-07-20T08:14:32;20.90;99.90
59847;DHT22;45728;48.788;2.302;2023-07-20T08:16:58;21.10;99.90
59847;DHT22;45728;48.788;2.302;2023-07-20T08:19:24;21.20;99.90
59847;DHT22;45728;48.788;2.302;2023-07-20T08:21:50;21.20;99.90
59847;DHT22;45728;48.788;2.302;2023-07-20T08:24:16;21.20;99.90
59847;DHT22;45728;48.788;2.302;2023-07-20T08:26:43;21.30;99.90
59847;DHT22;45728;48.788;2.302;2023-07-20T08:29:09;21.50;99.90
59847;DHT22;45728;48.788;2.302;2023-07-20T08:31:35;21.60;99.90
59847;DHT22;45728;48.788;2.302;2023-07-20T08:34:01;21.70;99.90
59847;DHT22;45728;48.788;2.302;2023-07-20T08:36:27;21.50;99.90
59847;DHT22;45728;48.788;2.302;2023-07-20T08:38:53;21.40;99.90
59847;DHT22;45728;48.788;2.302;2023-07-20T08:41:19;21.10;99.90
59847;DHT22;45728;48.788;2.302;2023-07-20T08:43:46;21.10;99.90
59847;DHT22;45728;48.788;2.302;2023-07-20T08:46:13;21.20;99.90
59847;DHT22;45728;48.788;2.302;2023-07-20T08:48:42;21.40;99.90
59847;DHT22;45728;48.788;2.302;2023-07-20T08:51:10;21.50;99.90
59847;DHT22;45728;48.788;2.302;2023-07-20T08:53:36;21.30;99.90
59847;DHT22;45728;48.788;2.302;2023-07-20T08:56:04;21.10;99.90
59847;DHT22;45728;48.788;2.302;2023-07-20T08:58:31;21.30;99.90
59847;DHT22;45728;48.788;2.302;2023-07-20T09:00:58;21.20;99.90
59847;DHT22;45728;48.788;2.302;2023-07-20T09:03:25;21.50;99.90
59847;DHT22;45728;48.788;2.302;2023-07-20T09:05:51;21.60;99.90
59847;DHT22;45728;48.788;2.302;2023-07-20T09:08:18;21.80;99.90
59847;DHT22;45728;48.788;2.302;2023-07-20T09:10:44;22.00;99.90
59847;DHT22;45728;48.788;2.302;2023-07-20T09:13:14;22.10;99.90
59847;DHT22;45728;48.788;2.302;2023-07-20T09:15:46;22.40;99.90
59847;DHT22;45728;48.788;2.302;2023-07-20T09:18:27;22.30;99.90
59847;DHT22;45728;48.788;2.302;2023-07-20T09:21:01;22.00;99.90
59847;DHT22;45728;48.788;2.302;2023-07-20T09:23:32;22.10;99.90
59847;DHT22;45728;48.788;2.302;2023-07-20T09:25:58;22.20;99.90
59847;DHT22;45728;48.788;2.302;2023-07-20T09:28:25;22.40;99.90
59847;DHT22;45728;48.788;2.302;2023-07-20T09:30:51;22.60;99.90
59847;DHT22;45728;48.788;2.302;2023-07-20T09:33:23;23.00;99.90
59847;DHT22;45728;48.788;2.302;2023-07-20T09:35:49;23.30;99.90
59847;DHT22;45728;48.788;2.302;2023-07-20T09:38:15;23.30;99.90
59847;DHT22;45728;48.788;2.302;2023-07-20T09:40:42;23.20;99.90
59847;DHT22;45728;48.788;2.302;2023-07-20T09:43:09;23.20;99.90
59847;DHT22;45728;48.788;2.302;2023-07-20T09:45:39;23.00;99.90
59847;DHT22;45728;48.788;2.302;2023-07-20T09:48:07;23.20;99.90
59847;DHT22;45728;48.788;2.302;2023-07-20T09:50:34;23.30;99.90
59847;DHT22;45728;48.788;2.302;2023-07-20T09:53:01;23.50;99.90
59847;DHT22;45728;48.788;2.302;2023-07-20T09:55:29;23.60;99.90
59847;DHT22;45728;48.788;2.302;2023-07-20T09:57:56;23.50;99.90
59847;DHT22;45728;48.788;2.302;2023-07-20T10:00:22;23.60;99.90
59847;DHT22;45728;48.788;2.302;2023-07-20T10:02:49;23.30;99.90
59847;DHT22;45728;48.788;2.302;2023-07-20T10:05:17;23.10;99.90
59847;DHT22;45728;48.788;2.302;2023-07-20T10:07:47;23.40;99.90
59847;DHT22;45728;48.788;2.302;2023-07-20T10:10:15;23.60;99.90
59847;DHT22;45728;48.788;2.302;2023-07-20T10:12:43;23.90;99.90
59847;DHT22;45728;48.788;2.302;2023-07-20T10:15:23;24.30;99.10
59847;DHT22;45728;48.788;2.302;2023-07-20T10:17:57;24.70;98.60
59847;DHT22;45728;48.788;2.302;2023-07-20T10:20:24;24.80;98.70
59847;DHT22;45728;48.788;2.302;2023-07-20T10:22:53;25.30;97.80
59847;DHT22;45728;48.788;2.302;2023-07-20T10:25:22;25.40;97.70
59847;DHT22;45728;48.788;2.302;2023-07-20T10:27:49;25.10;97.30
59847;DHT22;45728;48.788;2.302;2023-07-20T10:30:17;24.90;97.30
59847;DHT22;45728;48.788;2.302;2023-07-20T10:32:44;25.00;98.30
59847;DHT22;45728;48.788;2.302;2023-07-20T10:35:15;25.50;97.20
59847;DHT22;45728;48.788;2.302;2023-07-20T10:42:57;25.60;96.70
59847;DHT22;45728;48.788;2.302;2023-07-20T10:45:53;25.80;97.10
59847;DHT22;45728;48.788;2.302;2023-07-20T10:51:20;26.30;96.20
59847;DHT22;45728;48.788;2.302;2023-07-20T10:53:48;26.00;96.30
59847;DHT22;45728;48.788;2.302;2023-07-20T10:56:20;25.90;95.40
59847;DHT22;45728;48.788;2.302;2023-07-20T10:58:46;25.60;95.30
59847;DHT22;45728;48.788;2.302;2023-07-20T11:01:18;25.60;95.30
59847;DHT22;45728;48.788;2.302;2023-07-20T11:03:49;25.50;94.90
59847;DHT22;45728;48.788;2.302;2023-07-20T11:09:08;25.30;94.50
59847;DHT22;45728;48.788;2.302;2023-07-20T11:11:38;25.20;94.70
59847;DHT22;45728;48.788;2.302;2023-07-20T11:14:27;24.90;94.90
59847;DHT22;45728;48.788;2.302;2023-07-20T11:16:53;25.10;94.60
59847;DHT22;45728;48.788;2.302;2023-07-20T11:19:21;24.90;95.00
59847;DHT22;45728;48.788;2.302;2023-07-20T11:21:51;24.70;95.00
59847;DHT22;45728;48.788;2.302;2023-07-20T11:24:18;24.80;95.30
59847;DHT22;45728;48.788;2.302;2023-07-20T11:26:49;25.10;95.20
59847;DHT22;45728;48.788;2.302;2023-07-20T11:29:20;24.50;95.60
59847;DHT22;45728;48.788;2.302;2023-07-20T11:31:47;24.20;95.90
59847;DHT22;45728;48.788;2.302;2023-07-20T11:34:15;24.40;95.80
59847;DHT22;45728;48.788;2.302;2023-07-20T11:36:45;24.30;95.60
59847;DHT22;45728;48.788;2.302;2023-07-20T11:39:13;24.10;95.70
59847;DHT22;45728;48.788;2.302;2023-07-20T11:41:46;24.70;95.60
59847;DHT22;45728;48.788;2.302;2023-07-20T11:44:12;24.80;94.90
59847;DHT22;45728;48.788;2.302;2023-07-20T11:46:42;24.80;94.70
59847;DHT22;45728;48.788;2.302;2023-07-20T11:49:08;24.80;94.80
59847;DHT22;45728;48.788;2.302;2023-07-20T11:51:35;25.20;94.60
59847;DHT22;45728;48.788;2.302;2023-07-20T11:54:06;25.30;94.30
59847;DHT22;45728;48.788;2.302;2023-07-20T11:56:32;25.30;94.10
59847;DHT22;45728;48.788;2.302;2023-07-20T11:58:59;25.30;94.00
59847;DHT22;45728;48.788;2.302;2023-07-20T12:01:28;25.60;94.50
59847;DHT22;45728;48.788;2.302;2023-07-20T12:03:56;25.50;93.70
59847;DHT22;45728;48.788;2.302;2023-07-20T12:06:27;25.60;93.60
59847;DHT22;45728;48.788;2.302;2023-07-20T12:08:59;25.30;93.60
59847;DHT22;45728;48.788;2.302;2023-07-20T12:11:35;25.60;93.60
59847;DHT22;45728;48.788;2.302;2023-07-20T12:14:03;25.60;93.50
59847;DHT22;45728;48.788;2.302;2023-07-20T12:16:30;25.60;93.20
59847;DHT22;45728;48.788;2.302;2023-07-20T12:19:00;25.50;93.00
59847;DHT22;45728;48.788;2.302;2023-07-20T12:21:28;25.10;93.20
59847;DHT22;45728;48.788;2.302;2023-07-20T12:23:56;25.10;93.40
59847;DHT22;45728;48.788;2.302;2023-07-20T12:26:24;25.10;93.00
59847;DHT22;45728;48.788;2.302;2023-07-20T12:28:51;24.90;93.20
59847;DHT22;45728;48.788;2.302;2023-07-20T12:31:18;25.60;92.80
59847;DHT22;45728;48.788;2.302;2023-07-20T12:33:44;25.70;92.90
59847;DHT22;45728;48.788;2.302;2023-07-20T12:36:10;25.50;92.90
59847;DHT22;45728;48.788;2.302;2023-07-20T12:38:36;25.10;92.70
59847;DHT22;45728;48.788;2.302;2023-07-20T12:41:03;25.00;93.30
59847;DHT22;45728;48.788;2.302;2023-07-20T12:43:30;25.20;93.20
59847;DHT22;45728;48.788;2.302;2023-07-20T12:45:57;25.00;93.00
59847;DHT22;45728;48.788;2.302;2023-07-20T12:48:24;25.00;93.00
59847;DHT22;45728;48.788;2.302;2023-07-20T12:50:50;25.50;92.70
59847;DHT22;45728;48.788;2.302;2023-07-20T12:53:16;25.30;92.50
59847;DHT22;45728;48.788;2.302;2023-07-20T12:55:42;25.60;92.50
59847;DHT22;45728;48.788;2.302;2023-07-20T12:58:10;25.60;92.40
59847;DHT22;45728;48.788;2.302;2023-07-20T13:00:36;25.30;92.30
59847;DHT22;45728;48.788;2.302;2023-07-20T13:03:02;25.10;92.60
59847;DHT22;45728;48.788;2.302;2023-07-20T13:05:32;24.90;92.90
59847;DHT22;45728;48.788;2.302;2023-07-20T13:07:59;25.10;92.90
59847;DHT22;45728;48.788;2.302;2023-07-20T13:10:25;25.00;92.50
59847;DHT22;45728;48.788;2.302;2023-07-20T13:12:51;25.00;92.80
59847;DHT22;45728;48.788;2.302;2023-07-20T13:15:17;25.00;92.80
59847;DHT22;45728;48.788;2.302;2023-07-20T13:17:44;24.80;92.90
59847;DHT22;45728;48.788;2.302;2023-07-20T13:20:12;24.70;93.00
59847;DHT22;45728;48.788;2.302;2023-07-20T13:22:38;25.10;92.80
59847;DHT22;45728;48.788;2.302;2023-07-20T13:25:05;25.40;92.90
59847;DHT22;45728;48.788;2.302;2023-07-20T13:27:32;25.60;92.30
59847;DHT22;45728;48.788;2.302;2023-07-20T13:29:59;25.40;92.20
59847;DHT22;45728;48.788;2.302;2023-07-20T13:32:27;25.20;92.30
59847;DHT22;45728;48.788;2.302;2023-07-20T13:34:53;25.50;92.30
59847;DHT22;45728;48.788;2.302;2023-07-20T13:37:19;25.70;92.60
59847;DHT22;45728;48.788;2.302;2023-07-20T13:39:45;25.70;91.60
59847;DHT22;45728;48.788;2.302;2023-07-20T13:42:11;25.90;91.50
59847;DHT22;45728;48.788;2.302;2023-07-20T13:44:38;25.80;91.10
59847;DHT22;45728;48.788;2.302;2023-07-20T13:47:04;26.00;91.70
59847;DHT22;45728;48.788;2.302;2023-07-20T13:49:33;26.30;91.60
59847;DHT22;45728;48.788;2.302;2023-07-20T13:52:00;26.60;91.70
59847;DHT22;45728;48.788;2.302;2023-07-20T13:54:26;26.30;91.30
59847;DHT22;45728;48.788;2.302;2023-07-20T13:56:52;26.20;90.80
59847;DHT22;45728;48.788;2.302;2023-07-20T13:59:18;26.40;91.20
59847;DHT22;45728;48.788;2.302;2023-07-20T14:01:45;26.40;90.40
59847;DHT22;45728;48.788;2.302;2023-07-20T14:04:11;26.30;90.40
59847;DHT22;45728;48.788;2.302;2023-07-20T14:06:37;25.80;90.30
59847;DHT22;45728;48.788;2.302;2023-07-20T14:09:03;25.00;90.30
59847;DHT22;45728;48.788;2.302;2023-07-20T14:11:29;25.10;90.50
59847;DHT22;45728;48.788;2.302;2023-07-20T14:13:55;25.20;90.40
59847;DHT22;45728;48.788;2.302;2023-07-20T14:16:24;25.60;90.10
59847;DHT22;45728;48.788;2.302;2023-07-20T14:18:50;26.00;90.10
59847;DHT22;45728;48.788;2.302;2023-07-20T14:21:17;26.20;89.80
59847;DHT22;45728;48.788;2.302;2023-07-20T14:23:49;26.00;89.20
59847;DHT22;45728;48.788;2.302;2023-07-20T14:26:15;26.10;89.30
59847;DHT22;45728;48.788;2.302;2023-07-20T14:28:42;26.20;89.20
59847;DHT22;45728;48.788;2.302;2023-07-20T14:31:08;26.20;88.60
59847;DHT22;45728;48.788;2.302;2023-07-20T14:33:34;26.30;88.10
59847;DHT22;45728;48.788;2.302;2023-07-20T14:36:01;26.10;88.20
59847;DHT22;45728;48.788;2.302;2023-07-20T14:38:28;26.00;88.10
59847;DHT22;45728;48.788;2.302;2023-07-20T14:40:54;25.70;87.40
59847;DHT22;45728;48.788;2.302;2023-07-20T14:43:21;25.90;89.10
59847;DHT22;45728;48.788;2.302;2023-07-20T14:45:47;25.50;89.20
59847;DHT22;45728;48.788;2.302;2023-07-20T14:48:13;25.70;89.70
59847;DHT22;45728;48.788;2.302;2023-07-20T14:50:39;26.10;89.60
59847;DHT22;45728;48.788;2.302;2023-07-20T14:53:05;26.00;89.00
59847;DHT22;45728;48.788;2.302;2023-07-20T14:55:31;25.70;89.30
59847;DHT22;45728;48.788;2.302;2023-07-20T14:57:57;25.40;89.30
59847;DHT22;45728;48.788;2.302;2023-07-20T15:00:23;25.50;89.70
59847;DHT22;45728;48.788;2.302;2023-07-20T15:02:49;25.40;89.50
59847;DHT22;45728;48.788;2.302;2023-07-20T15:05:23;25.30;89.10
59847;DHT22;45728;48.788;2.302;2023-07-20T15:07:50;25.40;89.10
59847;DHT22;45728;48.788;2.302;2023-07-20T15:10:16;25.40;89.40
59847;DHT22;45728;48.788;2.302;2023-07-20T15:12:43;25.40;88.70
59847;DHT22;45728;48.788;2.302;2023-07-20T15:15:11;25.40;89.80
59847;DHT22;45728;48.788;2.302;2023-07-20T15:17:39;25.90;89.20
59847;DHT22;45728;48.788;2.302;2023-07-20T15:20:07;26.10;88.20
59847;DHT22;45728;48.788;2.302;2023-07-20T15:22:34;25.90;88.70
59847;DHT22;45728;48.788;2.302;2023-07-20T15:25:08;25.90;88.80
59847;DHT22;45728;48.788;2.302;2023-07-20T15:27:36;25.80;89.00
59847;DHT22;45728;48.788;2.302;2023-07-20T15:30:02;26.00;89.10
59847;DHT22;45728;48.788;2.302;2023-07-20T15:32:29;26.20;88.00
59847;DHT22;45728;48.788;2.302;2023-07-20T15:34:55;26.20;87.90
59847;DHT22;45728;48.788;2.302;2023-07-20T15:37:21;26.20;87.90
59847;DHT22;45728;48.788;2.302;2023-07-20T15:39:50;26.20;87.90
59847;DHT22;45728;48.788;2.302;2023-07-20T15:42:17;26.20;88.30
59847;DHT22;45728;48.788;2.302;2023-07-20T15:44:43;26.10;88.20
59847;DHT22;45728;48.788;2.302;2023-07-20T15:47:09;26.30;88.50
59847;DHT22;45728;48.788;2.302;2023-07-20T15:49:36;26.40;88.20